createdAt,value
2018-04-01T00:02:13.325Z,26.37
2018-04-01T00:04:41.223Z,26.77
2018-04-01T00:07:09.159Z,26.80
2018-04-01T00:09:37.046Z,26.97
2018-04-01T00:12:04.937Z,26.83
2018-04-01T00:14:32.877Z,26.63
2018-04-01T00:17:00.769Z,28.23
2018-04-01T00:19:28.669Z,26.43
2018-04-01T00:21:56.636Z,26.67
2018-04-01T00:24:24.534Z,26.63
2018-04-01T00:26:52.430Z,29.20
2018-04-01T00:29:20.365Z,27.90
2018-04-01T00:31:48.263Z,30.30
2018-04-01T00:34:16.153Z,29.13
2018-04-01T00:36:44.093Z,28.27
2018-04-01T00:39:12.007Z,29.93
2018-04-01T00:41:39.904Z,32.00
2018-04-01T00:44:07.850Z,30.47
2018-04-01T00:46:35.761Z,33.27
2018-04-01T00:49:03.657Z,35.63
2018-04-01T00:51:31.605Z,32.97
2018-04-01T00:53:59.506Z,36.80
2018-04-01T00:56:27.412Z,33.20
2018-04-01T00:58:55.349Z,32.23
2018-04-01T01:01:23.244Z,29.27
2018-04-01T01:03:51.141Z,29.67
2018-04-01T01:06:19.233Z,30.63
2018-04-01T01:08:47.137Z,40.10
2018-04-01T01:11:15.025Z,38.57
2018-04-01T01:13:42.970Z,37.70
2018-04-01T01:16:10.857Z,40.50
2018-04-01T01:18:38.749Z,38.17
2018-04-01T01:21:06.685Z,37.47
2018-04-01T01:23:34.587Z,42.07
2018-04-01T01:26:02.474Z,42.37
2018-04-01T01:28:30.432Z,45.83
2018-04-01T01:30:58.326Z,49.27
2018-04-01T01:33:26.221Z,45.47
2018-04-01T01:35:54.185Z,42.40
2018-04-01T01:38:22.078Z,40.40
2018-04-01T01:40:49.977Z,46.70
2018-04-01T01:43:17.901Z,47.20
2018-04-01T01:45:45.797Z,52.23
2018-04-01T01:48:13.694Z,47.43
2018-04-01T01:50:41.645Z,51.20
2018-04-01T01:53:09.537Z,49.07
2018-04-01T01:55:37.442Z,49.47
2018-04-01T01:58:05.400Z,47.53
2018-04-01T02:00:33.293Z,46.30
2018-04-01T02:03:01.184Z,44.33
2018-04-01T02:05:29.233Z,45.17
2018-04-01T02:07:57.129Z,45.60
2018-04-01T02:10:25.026Z,40.97
2018-04-01T02:12:52.963Z,41.67
2018-04-01T02:15:20.853Z,38.63
2018-04-01T02:17:48.758Z,37.40
2018-04-01T02:20:16.690Z,35.90
2018-04-01T02:22:44.591Z,39.70
2018-04-01T02:25:12.502Z,41.63
2018-04-01T02:27:40.446Z,40.07
2018-04-01T02:30:08.347Z,39.27
2018-04-01T02:32:36.239Z,38.70
2018-04-01T02:35:04.203Z,39.63
2018-04-01T02:37:32.114Z,37.07
2018-04-01T02:40:00.014Z,38.70
2018-04-01T02:42:27.966Z,39.33
2018-04-01T02:44:55.863Z,38.93
2018-04-01T02:47:23.757Z,32.17
2018-04-01T02:49:51.731Z,34.93
2018-04-01T02:52:19.633Z,33.07
2018-04-01T02:54:47.534Z,36.90
2018-04-01T02:57:15.475Z,34.63
2018-04-01T02:59:43.382Z,33.03
2018-04-01T03:02:11.284Z,36.87
2018-04-01T03:04:39.268Z,33.13
2018-04-01T03:07:07.147Z,36.30
2018-04-01T03:09:35.055Z,36.60
2018-04-01T03:12:03.014Z,40.07
2018-04-01T03:14:30.938Z,42.40
2018-04-01T03:16:58.833Z,43.97
2018-04-01T03:19:26.777Z,42.93
2018-04-01T03:21:54.665Z,45.10
2018-04-01T03:24:22.558Z,43.17
2018-04-01T03:26:50.488Z,45.47
2018-04-01T03:29:18.381Z,47.97
2018-04-01T03:31:46.276Z,46.60
2018-04-01T03:34:14.211Z,47.80
2018-04-01T03:36:42.112Z,51.13
2018-04-01T03:39:10.010Z,57.43
2018-04-01T03:41:38.198Z,49.47
2018-04-01T03:44:06.094Z,50.83
2018-04-01T03:46:33.991Z,51.07
2018-04-01T03:49:01.933Z,51.37
2018-04-01T03:51:29.826Z,53.10
2018-04-01T03:53:57.718Z,50.03
2018-04-01T03:56:25.650Z,50.93
2018-04-01T03:58:53.542Z,50.93
2018-04-01T04:01:21.438Z,53.47
2018-04-01T04:03:49.577Z,55.23
2018-04-01T04:06:17.499Z,56.27
2018-04-01T04:08:45.415Z,55.03
2018-04-01T04:11:13.370Z,49.20
2018-04-01T04:13:41.261Z,48.00
2018-04-01T04:16:09.154Z,51.57
2018-04-01T04:18:37.097Z,50.33
2018-04-01T04:21:04.991Z,50.43
2018-04-01T04:23:32.889Z,50.10
2018-04-01T04:26:00.830Z,48.37
2018-04-01T04:28:28.725Z,46.40
2018-04-01T04:30:56.617Z,48.47
2018-04-01T04:33:24.558Z,51.93
2018-04-01T04:35:52.450Z,53.40
2018-04-01T04:38:20.337Z,55.87
2018-04-01T04:40:48.537Z,51.63
2018-04-01T04:43:16.438Z,47.70
2018-04-01T04:45:44.336Z,44.27
2018-04-01T04:48:12.273Z,48.60
2018-04-01T04:50:40.166Z,47.30
2018-04-01T04:53:08.058Z,49.00
2018-04-01T04:55:36.022Z,46.33
2018-04-01T04:58:03.913Z,50.63
2018-04-01T05:00:31.811Z,44.13
2018-04-01T05:02:59.756Z,43.27
2018-04-01T05:05:27.650Z,39.30
2018-04-01T05:07:55.557Z,43.73
2018-04-01T05:10:23.506Z,43.37
2018-04-01T05:12:51.397Z,45.47
2018-04-01T05:15:19.313Z,45.63
2018-04-01T05:17:47.242Z,45.83
2018-04-01T05:20:15.148Z,45.13
2018-04-01T05:22:43.078Z,42.17
2018-04-01T05:25:11.009Z,46.07
2018-04-01T05:27:38.902Z,46.10
2018-04-01T05:30:06.802Z,46.37
2018-04-01T05:32:34.747Z,43.77
2018-04-01T05:35:02.639Z,44.40
2018-04-01T05:37:30.539Z,46.03
2018-04-01T05:39:58.465Z,47.97
2018-04-01T05:42:26.357Z,45.20
2018-04-01T05:44:54.254Z,47.77
2018-04-01T05:47:22.189Z,45.23
2018-04-01T05:49:50.085Z,47.00
2018-04-01T05:52:17.975Z,50.37
2018-04-01T05:54:45.905Z,50.13
2018-04-01T05:57:13.798Z,49.10
2018-04-01T05:59:41.694Z,47.10
2018-04-01T06:02:09.634Z,41.47
2018-04-01T06:04:37.531Z,37.43
2018-04-01T06:07:05.432Z,38.43
2018-04-01T06:09:33.378Z,35.27
2018-04-01T06:12:01.286Z,34.13
2018-04-01T06:14:29.193Z,30.53
2018-04-01T06:16:57.125Z,29.27
2018-04-01T06:19:25.023Z,28.10
2018-04-01T06:21:52.914Z,28.53
2018-04-01T06:24:20.863Z,30.50
2018-04-01T06:26:48.758Z,29.13
2018-04-01T06:29:16.646Z,27.93
2018-04-01T06:31:44.590Z,25.63
2018-04-01T06:34:12.486Z,27.43
2018-04-01T06:36:40.373Z,28.37
2018-04-01T06:39:08.324Z,28.87
2018-04-01T06:41:36.236Z,26.07
2018-04-01T06:44:04.125Z,26.57
2018-04-01T06:46:32.066Z,24.80
2018-04-01T06:48:59.962Z,27.93
2018-04-01T06:51:27.853Z,26.33
2018-04-01T06:53:55.785Z,26.00
2018-04-01T06:56:23.682Z,22.37
2018-04-01T06:58:51.574Z,28.40
2018-04-01T07:01:19.517Z,27.07
2018-04-01T07:03:47.414Z,24.57
2018-04-01T07:06:15.321Z,21.60
2018-04-01T07:08:43.274Z,22.57
2018-04-01T07:11:11.170Z,21.40
2018-04-01T07:13:39.062Z,20.60
2018-04-01T07:16:07.014Z,21.77
2018-04-01T07:18:34.910Z,22.47
2018-04-01T07:21:02.803Z,21.93
2018-04-01T07:23:30.745Z,22.40
2018-04-01T07:25:58.645Z,23.43
2018-04-01T07:28:26.542Z,23.50
2018-04-01T07:30:54.489Z,22.67
2018-04-01T07:33:22.386Z,24.17
2018-04-01T07:35:50.326Z,21.10
2018-04-01T07:38:18.261Z,23.80
2018-04-01T07:40:46.154Z,24.33
2018-04-01T07:43:14.049Z,24.13
2018-04-01T07:45:41.989Z,22.30
2018-04-01T07:48:09.887Z,21.43
2018-04-01T07:50:37.777Z,21.43
2018-04-01T07:53:05.749Z,22.17
2018-04-01T07:55:33.647Z,24.90
2018-04-01T07:58:01.542Z,20.57
2018-04-01T08:00:29.475Z,24.93
2018-04-01T08:02:57.368Z,24.00
2018-04-01T08:05:25.258Z,21.87
2018-04-01T08:07:53.195Z,22.10
2018-04-01T08:10:21.090Z,22.70
2018-04-01T08:12:48.982Z,23.83
2018-04-01T08:15:16.914Z,24.40
2018-04-01T08:17:44.813Z,23.30
2018-04-01T08:20:12.727Z,23.90
2018-04-01T08:22:40.694Z,22.27
2018-04-01T08:25:08.586Z,21.83
2018-04-01T08:27:36.473Z,24.77
2018-04-01T08:30:04.430Z,20.13
2018-04-01T08:32:32.322Z,20.47
2018-04-01T08:35:00.215Z,22.33
2018-04-01T08:37:28.149Z,23.63
2018-04-01T08:39:56.069Z,24.70
2018-04-01T08:42:23.975Z,23.93
2018-04-01T08:44:51.921Z,25.27
2018-04-01T08:47:19.812Z,22.50
2018-04-01T08:49:47.700Z,23.77
2018-04-01T08:52:15.634Z,20.77
2018-04-01T08:54:43.537Z,22.60
2018-04-01T08:57:11.426Z,20.83
2018-04-01T08:59:39.382Z,22.50
2018-04-01T09:02:07.277Z,22.87
2018-04-01T09:04:35.166Z,23.87
2018-04-01T09:07:03.104Z,21.90
2018-04-01T09:09:31.002Z,20.23
2018-04-01T09:11:58.893Z,22.53
2018-04-01T09:14:26.851Z,21.30
2018-04-01T09:16:54.820Z,21.17
2018-04-01T09:19:22.694Z,21.93
2018-04-01T09:21:50.630Z,20.67
2018-04-01T09:24:18.525Z,21.17
2018-04-01T09:26:46.434Z,22.10
2018-04-01T09:29:14.378Z,19.43
2018-04-01T09:31:42.283Z,16.87
2018-04-01T09:34:10.202Z,19.83
2018-04-01T09:36:38.137Z,21.80
2018-04-01T09:39:06.026Z,18.53
2018-04-01T09:41:33.957Z,20.13
2018-04-01T09:44:02.107Z,19.10
2018-04-01T09:46:29.978Z,19.90
2018-04-01T09:48:57.869Z,17.90
2018-04-01T09:51:25.821Z,19.80
2018-04-01T09:53:53.723Z,17.83
2018-04-01T09:56:21.621Z,18.50
2018-04-01T09:58:49.557Z,22.43
2018-04-01T10:01:18.007Z,18.33
2018-04-01T10:03:46.450Z,18.70
2018-04-01T10:06:14.946Z,17.80
2018-04-01T10:08:43.381Z,18.43
2018-04-01T10:11:11.822Z,18.97
2018-04-01T10:13:40.298Z,19.17
2018-04-01T10:16:08.735Z,16.47
2018-04-01T10:18:37.174Z,21.63
2018-04-01T10:21:05.672Z,16.63
2018-04-01T10:23:34.120Z,18.00
2018-04-01T10:26:02.553Z,18.13
2018-04-01T10:28:31.041Z,17.63
2018-04-01T10:30:59.497Z,17.60
2018-04-01T10:33:27.930Z,18.80
2018-04-01T10:35:56.645Z,17.97
2018-04-01T10:38:25.086Z,17.13
2018-04-01T10:40:53.526Z,15.17
2018-04-01T10:43:22.045Z,19.90
2018-04-01T10:45:50.499Z,17.37
2018-04-01T10:48:18.934Z,16.73
2018-04-01T10:50:47.426Z,16.07
2018-04-01T10:53:15.882Z,15.83
2018-04-01T10:55:43.778Z,14.67
2018-04-01T10:58:11.728Z,18.00
2018-04-01T11:00:39.617Z,15.87
2018-04-01T11:03:07.514Z,17.53
2018-04-01T11:05:35.461Z,15.97
2018-04-01T11:08:03.366Z,17.20
2018-04-01T11:10:31.265Z,26.03
2018-04-01T11:12:59.272Z,14.87
2018-04-01T11:15:27.161Z,14.43
2018-04-01T11:17:55.062Z,14.47
2018-04-01T11:20:23.013Z,15.63
2018-04-01T11:22:50.907Z,13.10
2018-04-01T11:25:18.822Z,13.50
2018-04-01T11:27:46.765Z,16.43
2018-04-01T11:30:14.659Z,15.20
2018-04-01T11:32:42.551Z,13.40
2018-04-01T11:35:10.487Z,13.17
2018-04-01T11:37:38.381Z,14.03
2018-04-01T11:40:06.293Z,15.03
2018-04-01T11:42:34.225Z,13.97
2018-04-01T11:45:02.119Z,17.37
2018-04-01T11:47:30.009Z,17.63
2018-04-01T11:49:57.961Z,14.77
2018-04-01T11:52:25.863Z,14.50
2018-04-01T11:54:53.761Z,16.10
2018-04-01T11:57:21.702Z,15.23
2018-04-01T11:59:49.597Z,17.43
2018-04-01T12:02:17.490Z,14.50
2018-04-01T12:04:45.438Z,13.30
2018-04-01T12:07:13.330Z,13.47
2018-04-01T12:09:41.229Z,13.27
2018-04-01T12:12:09.165Z,16.03
2018-04-01T12:14:37.063Z,15.77
2018-04-01T12:17:04.954Z,15.40
2018-04-01T12:19:32.885Z,14.33
2018-04-01T12:22:00.774Z,15.40
2018-04-01T12:24:28.667Z,14.87
2018-04-01T12:26:56.624Z,16.37
2018-04-01T12:29:24.527Z,12.40
2018-04-01T12:31:52.417Z,11.90
2018-04-01T12:34:20.370Z,13.70
2018-04-01T12:36:48.258Z,12.27
2018-04-01T12:39:16.162Z,14.17
2018-04-01T12:41:44.101Z,14.50
2018-04-01T12:44:11.996Z,13.27
2018-04-01T12:46:39.886Z,12.90
2018-04-01T12:49:07.830Z,12.80
2018-04-01T12:51:35.722Z,14.27
2018-04-01T12:54:03.618Z,12.67
2018-04-01T12:56:31.565Z,14.00
2018-04-01T12:58:59.489Z,14.63
2018-04-01T13:01:27.383Z,16.10
2018-04-01T13:03:55.322Z,16.93
2018-04-01T13:06:23.221Z,14.07
2018-04-01T13:08:51.150Z,14.73
2018-04-01T13:11:19.122Z,17.07
2018-04-01T13:13:47.015Z,16.53
2018-04-01T13:16:14.906Z,17.63
2018-04-01T13:18:42.916Z,15.17
2018-04-01T13:21:10.782Z,14.60
2018-04-01T13:23:38.676Z,17.77
2018-04-01T13:26:06.607Z,16.17
2018-04-01T13:28:34.507Z,17.07
2018-04-01T13:31:02.405Z,16.83
2018-04-01T13:33:30.335Z,17.10
2018-04-01T13:35:58.226Z,18.10
2018-04-01T13:38:26.122Z,21.93
2018-04-01T13:40:54.060Z,20.53
2018-04-01T13:43:21.953Z,20.53
2018-04-01T13:45:49.855Z,21.77
2018-04-01T13:48:17.786Z,23.00
2018-04-01T13:50:45.682Z,23.97
2018-04-01T13:53:13.577Z,25.77
2018-04-01T13:55:41.533Z,27.07
2018-04-01T13:58:09.433Z,26.43
2018-04-01T14:00:37.321Z,24.77
2018-04-01T14:03:05.254Z,26.30
2018-04-01T14:05:33.154Z,24.47
2018-04-01T14:08:01.049Z,25.53
2018-04-01T14:10:29.230Z,26.20
2018-04-01T14:12:57.126Z,23.17
2018-04-01T14:15:25.040Z,20.70
2018-04-01T14:17:52.978Z,21.40
2018-04-01T14:20:20.872Z,21.73
2018-04-01T14:22:48.762Z,19.87
2018-04-01T14:25:16.701Z,23.63
2018-04-01T14:27:44.612Z,23.10
2018-04-01T14:30:12.516Z,22.67
2018-04-01T14:32:40.453Z,20.73
2018-04-01T14:35:08.345Z,22.23
2018-04-01T14:37:36.245Z,17.77
2018-04-01T14:40:04.178Z,17.93
2018-04-01T14:42:32.085Z,17.93
2018-04-01T14:44:59.977Z,18.40
2018-04-01T14:47:27.917Z,18.47
2018-04-01T14:49:55.813Z,15.97
2018-04-01T14:52:23.712Z,16.03
2018-04-01T14:54:51.654Z,16.30
2018-04-01T14:57:19.542Z,15.50
2018-04-01T14:59:47.443Z,15.30
2018-04-01T15:02:15.402Z,15.13
2018-04-01T15:04:43.297Z,14.30
2018-04-01T15:07:11.195Z,15.77
2018-04-01T15:09:39.130Z,14.80
2018-04-01T15:12:07.018Z,14.37
2018-04-01T15:14:34.911Z,14.97
2018-04-01T15:17:02.843Z,14.57
2018-04-01T15:19:30.742Z,16.67
2018-04-01T15:21:58.681Z,16.63
2018-04-01T15:24:26.609Z,17.10
2018-04-01T15:26:54.498Z,13.97
2018-04-01T15:29:22.397Z,13.63
2018-04-01T15:31:50.355Z,16.07
2018-04-01T15:34:18.254Z,16.97
2018-04-01T15:36:46.142Z,15.73
2018-04-01T15:39:14.095Z,15.87
2018-04-01T15:41:41.993Z,20.50
2018-04-01T15:44:09.887Z,18.50
2018-04-01T15:46:37.842Z,19.23
2018-04-01T15:49:05.734Z,19.87
2018-04-01T15:51:33.638Z,22.27
2018-04-01T15:54:01.573Z,19.67
2018-04-01T15:56:29.465Z,19.20
2018-04-01T15:58:57.363Z,19.03
2018-04-01T16:01:25.306Z,19.10
2018-04-01T16:03:53.259Z,19.50
2018-04-01T16:06:21.154Z,18.93
2018-04-01T16:08:49.086Z,19.63
2018-04-01T16:11:16.986Z,20.47
2018-04-01T16:13:44.877Z,19.77
2018-04-01T16:16:12.799Z,18.93
2018-04-01T16:18:40.697Z,19.87
2018-04-01T16:21:08.590Z,18.67
2018-04-01T16:23:36.525Z,19.33
2018-04-01T16:26:04.408Z,18.67
2018-04-01T16:28:32.282Z,18.30
2018-04-01T16:31:00.218Z,20.30
2018-04-01T16:33:28.142Z,17.70
2018-04-01T16:35:56.038Z,20.20
2018-04-01T16:38:23.960Z,18.73
2018-04-01T16:40:51.837Z,16.80
2018-04-01T16:43:19.727Z,17.83
2018-04-01T16:45:47.686Z,19.13
2018-04-01T16:48:15.582Z,17.50
2018-04-01T16:50:43.480Z,17.80
2018-04-01T16:53:11.430Z,16.77
2018-04-01T16:55:39.326Z,18.33
2018-04-01T16:58:07.213Z,17.47
2018-04-01T17:00:35.166Z,16.63
2018-04-01T17:03:03.050Z,17.83
2018-04-01T17:05:30.935Z,18.83
2018-04-01T17:07:58.856Z,17.37
2018-04-01T17:10:26.729Z,16.90
2018-04-01T17:12:54.619Z,18.83
2018-04-01T17:15:22.673Z,16.97
2018-04-01T17:17:50.549Z,18.77
2018-04-01T17:20:18.496Z,19.10
2018-04-01T17:22:46.520Z,16.73
2018-04-01T17:25:14.431Z,18.70
2018-04-01T17:27:42.362Z,17.83
2018-04-01T17:30:10.433Z,19.27
2018-04-01T17:32:38.311Z,19.10
2018-04-01T17:35:06.205Z,16.60
2018-04-01T17:37:34.129Z,17.50
2018-04-01T17:40:02.023Z,19.60
2018-04-01T17:42:29.904Z,20.60
2018-04-01T17:44:57.838Z,21.20
2018-04-01T17:47:25.714Z,20.67
2018-04-01T17:49:53.590Z,21.13
2018-04-01T17:52:21.534Z,18.50
2018-04-01T17:54:49.392Z,19.53
2018-04-01T17:57:17.277Z,20.47
2018-04-01T17:59:45.209Z,24.53
2018-04-01T18:02:13.089Z,27.03
2018-04-01T18:04:40.978Z,33.23
2018-04-01T18:07:08.885Z,42.73
2018-04-01T18:09:36.768Z,32.50
2018-04-01T18:12:04.654Z,26.13
2018-04-01T18:14:32.585Z,23.23
2018-04-01T18:17:00.458Z,24.93
2018-04-01T18:19:28.394Z,24.73
2018-04-01T18:21:56.362Z,20.93
2018-04-01T18:24:24.249Z,20.90
2018-04-01T18:26:52.113Z,21.77
2018-04-01T18:29:20.022Z,22.90
2018-04-01T18:31:47.914Z,22.30
2018-04-01T18:34:15.777Z,22.47
2018-04-01T18:36:43.681Z,23.73
2018-04-01T18:39:11.550Z,29.80
2018-04-01T18:41:39.423Z,52.57
2018-04-01T18:44:07.353Z,90.73
2018-04-01T18:46:35.227Z,116.73
2018-04-01T18:49:03.123Z,110.50
2018-04-01T18:51:31.053Z,133.33
2018-04-01T18:53:58.921Z,128.80
2018-04-01T18:56:26.790Z,102.77
2018-04-01T18:58:54.734Z,79.47
2018-04-01T19:01:22.606Z,43.83
2018-04-01T19:03:50.478Z,39.27
2018-04-01T19:06:18.422Z,41.13
2018-04-01T19:08:46.318Z,60.97
2018-04-01T19:11:14.198Z,48.50
2018-04-01T19:13:42.111Z,56.90
2018-04-01T19:16:10.525Z,56.60
2018-04-01T19:18:38.945Z,84.10
2018-04-01T19:21:07.418Z,72.23
2018-04-01T19:23:35.851Z,87.77
2018-04-01T19:26:04.269Z,83.50
2018-04-01T19:28:32.770Z,116.63
2018-04-01T19:31:01.214Z,113.93
2018-04-01T19:33:29.660Z,93.27
2018-04-01T19:35:58.145Z,127.77
2018-04-01T19:38:26.599Z,142.57
2018-04-01T19:40:55.036Z,159.57
2018-04-01T19:43:23.538Z,158.57
2018-04-01T19:45:52.002Z,138.57
2018-04-01T19:48:20.826Z,111.07
2018-04-01T19:50:49.309Z,96.50
2018-04-01T19:53:17.967Z,78.03
2018-04-01T19:55:46.402Z,75.23
2018-04-01T19:58:14.891Z,77.67
2018-04-01T20:00:43.325Z,60.40
2018-04-01T20:03:11.762Z,56.47
2018-04-01T20:05:40.406Z,55.90
2018-04-01T20:08:08.899Z,55.30
2018-04-01T20:10:37.330Z,52.57
2018-04-01T20:13:05.938Z,52.97
2018-04-01T20:15:34.369Z,60.93
2018-04-01T20:18:02.809Z,57.30
2018-04-01T20:20:31.328Z,52.63
2018-04-01T20:23:00.126Z,47.03
2018-04-01T20:25:28.561Z,40.20
2018-04-01T20:27:57.052Z,44.77
2018-04-01T20:30:25.486Z,43.80
2018-04-01T20:32:53.917Z,41.67
2018-04-01T20:35:22.405Z,38.93
2018-04-01T20:37:50.842Z,41.90
2018-04-01T20:40:19.285Z,42.37
2018-04-01T20:42:47.782Z,37.70
2018-04-01T20:45:16.217Z,34.30
2018-04-01T20:47:44.650Z,38.37
2018-04-01T20:50:13.162Z,37.83
2018-04-01T20:52:41.602Z,39.87
2018-04-01T20:55:10.042Z,40.40
2018-04-01T20:57:38.525Z,42.80
2018-04-01T21:00:06.961Z,47.87
2018-04-01T21:02:35.398Z,47.40
2018-04-01T21:05:03.913Z,46.77
2018-04-01T21:07:32.367Z,54.00
2018-04-01T21:10:00.806Z,51.23
2018-04-01T21:12:29.334Z,49.77
2018-04-01T21:14:57.770Z,48.67
2018-04-01T21:17:26.205Z,39.20
2018-04-01T21:19:54.689Z,39.93
2018-04-01T21:22:23.130Z,38.43
2018-04-01T21:24:51.574Z,41.27
2018-04-01T21:27:20.053Z,38.53
2018-04-01T21:29:48.492Z,40.27
2018-04-01T21:32:16.945Z,37.17
2018-04-01T21:34:45.438Z,39.53
2018-04-01T21:37:13.893Z,39.43
2018-04-01T21:39:42.325Z,32.93
2018-04-01T21:42:10.809Z,36.07
2018-04-01T21:44:39.258Z,35.10
2018-04-01T21:47:07.730Z,35.70
2018-04-01T21:49:36.214Z,38.33
2018-04-01T21:52:04.662Z,37.37
2018-04-01T21:54:33.102Z,38.60
2018-04-01T21:57:01.582Z,38.33
2018-04-01T21:59:30.028Z,35.23
2018-04-01T22:01:58.463Z,38.53
2018-04-01T22:04:26.934Z,36.83
2018-04-01T22:06:55.357Z,37.50
2018-04-01T22:09:23.796Z,37.47
2018-04-01T22:11:52.258Z,39.83
2018-04-01T22:14:20.682Z,38.10
2018-04-01T22:16:49.089Z,40.63
2018-04-01T22:19:17.542Z,44.10
2018-04-01T22:21:45.973Z,39.97
2018-04-01T22:24:14.394Z,42.53
2018-04-01T22:26:42.881Z,41.20
2018-04-01T22:29:11.295Z,45.77
2018-04-01T22:31:39.702Z,47.13
2018-04-01T22:34:08.153Z,47.80
2018-04-01T22:36:36.562Z,45.77
2018-04-01T22:39:05.039Z,46.23
2018-04-01T22:41:33.511Z,53.23
2018-04-01T22:44:01.946Z,47.73
2018-04-01T22:46:30.438Z,51.33
2018-04-01T22:48:58.885Z,50.73
2018-04-01T22:51:27.306Z,46.57
2018-04-01T22:53:55.701Z,49.90
2018-04-01T22:56:24.190Z,44.00
2018-04-01T22:58:52.654Z,50.17
2018-04-01T23:01:21.097Z,46.70
2018-04-01T23:03:49.566Z,50.27
2018-04-01T23:06:17.978Z,46.57
2018-04-01T23:08:46.394Z,48.17
2018-04-01T23:11:14.867Z,47.17
2018-04-01T23:13:43.282Z,53.00
2018-04-01T23:16:11.693Z,49.03
2018-04-01T23:18:40.138Z,45.10
2018-04-01T23:21:08.547Z,51.57
2018-04-01T23:23:37.000Z,47.83
2018-04-01T23:26:05.426Z,42.73
2018-04-01T23:28:33.874Z,46.07
2018-04-01T23:31:02.294Z,49.33
2018-04-01T23:33:30.865Z,45.73
2018-04-01T23:35:59.282Z,47.97
2018-04-01T23:38:27.690Z,48.07
2018-04-01T23:40:57.082Z,40.40
2018-04-01T23:43:25.493Z,48.43
2018-04-01T23:45:53.905Z,45.27
2018-04-01T23:48:22.403Z,46.27
2018-04-01T23:50:50.844Z,45.37
2018-04-01T23:53:19.278Z,49.53
2018-04-01T23:55:47.737Z,46.67
2018-04-01T23:58:16.154Z,47.43
